sensor_id;sensor_type;location;lat;lon;timestamp;P1;durP1;ratioP1;P2;durP2;ratioP2
1569;SDS011;778;50.120;8.698;2023-11-19T00:01:19;10.70;;;9.70;;
1569;SDS011;778;50.120;8.698;2023-11-19T00:03:47;7.93;;;7.33;;
1569;SDS011;778;50.120;8.698;2023-11-19T00:06:17;8.60;;;8.00;;
1569;SDS011;778;50.120;8.698;2023-11-19T00:08:46;14.37;;;8.87;;
1569;SDS011;778;50.120;8.698;2023-11-19T00:11:14;9.23;;;8.43;;
1569;SDS011;778;50.120;8.698;2023-11-19T00:13:43;10.20;;;9.23;;
1569;SDS011;778;50.120;8.698;2023-11-19T00:16:11;10.90;;;8.40;;
1569;SDS011;778;50.120;8.698;2023-11-19T00:18:39;10.80;;;9.70;;
1569;SDS011;778;50.120;8.698;2023-11-19T00:21:08;12.20;;;8.57;;
1569;SDS011;778;50.120;8.698;2023-11-19T00:23:36;11.30;;;9.80;;
1569;SDS011;778;50.120;8.698;2023-11-19T00:26:06;9.20;;;8.40;;
1569;SDS011;778;50.120;8.698;2023-11-19T00:28:36;10.67;;;9.57;;
1569;SDS011;778;50.120;8.698;2023-11-19T00:31:05;8.73;;;7.73;;
1569;SDS011;778;50.120;8.698;2023-11-19T00:33:34;10.37;;;9.43;;
1569;SDS011;778;50.120;8.698;2023-11-19T00:36:15;11.50;;;10.43;;
1569;SDS011;778;50.120;8.698;2023-11-19T00:38:44;10.23;;;9.23;;
1569;SDS011;778;50.120;8.698;2023-11-19T00:41:13;10.73;;;9.67;;
1569;SDS011;778;50.120;8.698;2023-11-19T00:43:43;12.40;;;9.73;;
1569;SDS011;778;50.120;8.698;2023-11-19T00:46:11;10.67;;;9.57;;
1569;SDS011;778;50.120;8.698;2023-11-19T00:48:40;11.70;;;10.60;;
1569;SDS011;778;50.120;8.698;2023-11-19T00:51:08;11.10;;;10.00;;
1569;SDS011;778;50.120;8.698;2023-11-19T00:53:39;12.03;;;10.77;;
1569;SDS011;778;50.120;8.698;2023-11-19T00:56:07;10.80;;;9.70;;
1569;SDS011;778;50.120;8.698;2023-11-19T00:58:40;10.17;;;9.13;;
1569;SDS011;778;50.120;8.698;2023-11-19T01:01:09;8.87;;;7.90;;
1569;SDS011;778;50.120;8.698;2023-11-19T01:03:39;11.67;;;10.63;;
1569;SDS011;778;50.120;8.698;2023-11-19T01:06:07;10.17;;;9.17;;
1569;SDS011;778;50.120;8.698;2023-11-19T01:08:35;10.30;;;9.30;;
1569;SDS011;778;50.120;8.698;2023-11-19T01:11:04;10.53;;;9.53;;
1569;SDS011;778;50.120;8.698;2023-11-19T01:13:32;9.63;;;8.83;;
1569;SDS011;778;50.120;8.698;2023-11-19T01:16:02;9.37;;;8.37;;
1569;SDS011;778;50.120;8.698;2023-11-19T01:18:30;10.00;;;9.00;;
1569;SDS011;778;50.120;8.698;2023-11-19T01:20:59;8.77;;;7.87;;
1569;SDS011;778;50.120;8.698;2023-11-19T01:23:27;10.03;;;9.03;;
1569;SDS011;778;50.120;8.698;2023-11-19T01:25:55;10.47;;;8.50;;
1569;SDS011;778;50.120;8.698;2023-11-19T01:28:23;8.93;;;8.13;;
1569;SDS011;778;50.120;8.698;2023-11-19T01:30:52;8.90;;;8.03;;
1569;SDS011;778;50.120;8.698;2023-11-19T01:33:22;10.67;;;8.90;;
1569;SDS011;778;50.120;8.698;2023-11-19T01:35:50;7.10;;;6.40;;
1569;SDS011;778;50.120;8.698;2023-11-19T01:38:18;8.40;;;7.70;;
1569;SDS011;778;50.120;8.698;2023-11-19T01:40:46;8.67;;;7.83;;
1569;SDS011;778;50.120;8.698;2023-11-19T01:46:01;8.30;;;7.60;;
1569;SDS011;778;50.120;8.698;2023-11-19T01:48:33;7.57;;;6.80;;
1569;SDS011;778;50.120;8.698;2023-11-19T01:51:03;8.97;;;8.17;;
1569;SDS011;778;50.120;8.698;2023-11-19T01:53:33;8.23;;;7.37;;
1569;SDS011;778;50.120;8.698;2023-11-19T01:56:02;7.90;;;7.13;;
1569;SDS011;778;50.120;8.698;2023-11-19T01:58:32;9.10;;;8.30;;
1569;SDS011;778;50.120;8.698;2023-11-19T02:01:01;7.90;;;7.27;;
1569;SDS011;778;50.120;8.698;2023-11-19T02:03:30;8.20;;;7.50;;
1569;SDS011;778;50.120;8.698;2023-11-19T02:06:02;7.60;;;6.97;;
1569;SDS011;778;50.120;8.698;2023-11-19T02:08:31;8.60;;;7.60;;
1569;SDS011;778;50.120;8.698;2023-11-19T02:10:59;7.43;;;6.80;;
1569;SDS011;778;50.120;8.698;2023-11-19T02:13:29;7.87;;;7.17;;
1569;SDS011;778;50.120;8.698;2023-11-19T02:15:57;8.00;;;7.30;;
1569;SDS011;778;50.120;8.698;2023-11-19T02:18:26;6.70;;;6.10;;
1569;SDS011;778;50.120;8.698;2023-11-19T02:20:55;7.33;;;6.63;;
1569;SDS011;778;50.120;8.698;2023-11-19T02:23:26;7.10;;;6.40;;
1569;SDS011;778;50.120;8.698;2023-11-19T02:26:00;6.30;;;5.80;;
1569;SDS011;778;50.120;8.698;2023-11-19T02:28:33;6.67;;;6.03;;
1569;SDS011;778;50.120;8.698;2023-11-19T02:31:03;6.63;;;5.90;;
1569;SDS011;778;50.120;8.698;2023-11-19T02:33:36;7.17;;;6.53;;
1569;SDS011;778;50.120;8.698;2023-11-19T02:36:05;6.87;;;6.27;;
1569;SDS011;778;50.120;8.698;2023-11-19T02:38:35;10.67;;;6.67;;
1569;SDS011;778;50.120;8.698;2023-11-19T02:41:03;7.00;;;6.40;;
1569;SDS011;778;50.120;8.698;2023-11-19T02:43:34;5.07;;;4.60;;
1569;SDS011;778;50.120;8.698;2023-11-19T02:46:05;6.67;;;6.07;;
1569;SDS011;778;50.120;8.698;2023-11-19T02:48:37;6.63;;;6.03;;
1569;SDS011;778;50.120;8.698;2023-11-19T02:51:05;6.60;;;6.00;;
1569;SDS011;778;50.120;8.698;2023-11-19T02:53:36;6.77;;;6.27;;
1569;SDS011;778;50.120;8.698;2023-11-19T02:56:07;6.63;;;5.87;;
1569;SDS011;778;50.120;8.698;2023-11-19T02:58:47;7.27;;;5.43;;
1569;SDS011;778;50.120;8.698;2023-11-19T03:01:21;6.37;;;5.87;;
1569;SDS011;778;50.120;8.698;2023-11-19T03:03:57;5.20;;;4.80;;
1569;SDS011;778;50.120;8.698;2023-11-19T03:06:27;5.83;;;5.33;;
1569;SDS011;778;50.120;8.698;2023-11-19T03:08:55;5.97;;;5.37;;
1569;SDS011;778;50.120;8.698;2023-11-19T03:11:23;5.10;;;4.70;;
1569;SDS011;778;50.120;8.698;2023-11-19T03:13:53;5.90;;;5.37;;
1569;SDS011;778;50.120;8.698;2023-11-19T03:16:21;5.47;;;5.07;;
1569;SDS011;778;50.120;8.698;2023-11-19T03:18:50;5.23;;;4.73;;
1569;SDS011;778;50.120;8.698;2023-11-19T03:21:19;4.17;;;3.77;;
1569;SDS011;778;50.120;8.698;2023-11-19T03:23:47;4.37;;;4.07;;
1569;SDS011;778;50.120;8.698;2023-11-19T03:26:15;4.60;;;4.30;;
1569;SDS011;778;50.120;8.698;2023-11-19T03:28:44;5.30;;;4.90;;
1569;SDS011;778;50.120;8.698;2023-11-19T03:31:13;5.73;;;5.30;;
1569;SDS011;778;50.120;8.698;2023-11-19T03:33:41;4.97;;;4.57;;
1569;SDS011;778;50.120;8.698;2023-11-19T03:36:10;5.10;;;4.70;;
1569;SDS011;778;50.120;8.698;2023-11-19T03:38:39;5.60;;;4.27;;
1569;SDS011;778;50.120;8.698;2023-11-19T03:41:12;4.93;;;4.53;;
1569;SDS011;778;50.120;8.698;2023-11-19T03:43:40;5.40;;;5.00;;
1569;SDS011;778;50.120;8.698;2023-11-19T03:46:17;5.67;;;5.27;;
1569;SDS011;778;50.120;8.698;2023-11-19T03:48:46;5.10;;;4.70;;
1569;SDS011;778;50.120;8.698;2023-11-19T03:51:14;5.10;;;4.70;;
1569;SDS011;778;50.120;8.698;2023-11-19T03:53:42;5.47;;;5.07;;
1569;SDS011;778;50.120;8.698;2023-11-19T03:56:11;5.90;;;5.40;;
1569;SDS011;778;50.120;8.698;2023-11-19T03:58:39;5.40;;;5.07;;
1569;SDS011;778;50.120;8.698;2023-11-19T04:01:10;5.47;;;4.97;;
1569;SDS011;778;50.120;8.698;2023-11-19T04:03:42;5.63;;;5.00;;
1569;SDS011;778;50.120;8.698;2023-11-19T04:06:13;5.50;;;5.10;;
1569;SDS011;778;50.120;8.698;2023-11-19T04:08:41;5.60;;;5.10;;
1569;SDS011;778;50.120;8.698;2023-11-19T04:11:10;5.13;;;4.73;;
1569;SDS011;778;50.120;8.698;2023-11-19T04:13:38;5.50;;;5.10;;
1569;SDS011;778;50.120;8.698;2023-11-19T04:16:07;5.30;;;4.90;;
1569;SDS011;778;50.120;8.698;2023-11-19T04:18:35;5.93;;;5.20;;
1569;SDS011;778;50.120;8.698;2023-11-19T04:21:06;4.67;;;4.27;;
1569;SDS011;778;50.120;8.698;2023-11-19T04:23:35;3.90;;;3.60;;
1569;SDS011;778;50.120;8.698;2023-11-19T04:26:03;4.40;;;4.10;;
1569;SDS011;778;50.120;8.698;2023-11-19T04:28:36;4.07;;;3.77;;
1569;SDS011;778;50.120;8.698;2023-11-19T04:31:04;4.23;;;3.93;;
1569;SDS011;778;50.120;8.698;2023-11-19T04:33:33;4.30;;;4.00;;
1569;SDS011;778;50.120;8.698;2023-11-19T04:36:01;4.70;;;4.30;;
1569;SDS011;778;50.120;8.698;2023-11-19T04:38:31;3.97;;;3.77;;
1569;SDS011;778;50.120;8.698;2023-11-19T04:40:59;4.70;;;4.40;;
1569;SDS011;778;50.120;8.698;2023-11-19T04:43:28;4.63;;;4.33;;
1569;SDS011;778;50.120;8.698;2023-11-19T04:45:56;3.07;;;2.87;;
1569;SDS011;778;50.120;8.698;2023-11-19T04:48:24;3.30;;;3.10;;
1569;SDS011;778;50.120;8.698;2023-11-19T04:50:53;4.30;;;4.00;;
1569;SDS011;778;50.120;8.698;2023-11-19T04:53:21;5.27;;;4.00;;
1569;SDS011;778;50.120;8.698;2023-11-19T04:55:50;4.20;;;3.90;;
1569;SDS011;778;50.120;8.698;2023-11-19T04:58:18;4.33;;;4.03;;
1569;SDS011;778;50.120;8.698;2023-11-19T05:00:47;4.40;;;4.03;;
1569;SDS011;778;50.120;8.698;2023-11-19T05:03:15;4.57;;;4.00;;
1569;SDS011;778;50.120;8.698;2023-11-19T05:05:44;4.60;;;4.20;;
1569;SDS011;778;50.120;8.698;2023-11-19T05:08:12;4.13;;;3.93;;
1569;SDS011;778;50.120;8.698;2023-11-19T05:10:40;4.60;;;4.20;;
1569;SDS011;778;50.120;8.698;2023-11-19T05:13:10;4.73;;;4.43;;
1569;SDS011;778;50.120;8.698;2023-11-19T05:15:39;5.33;;;4.93;;
1569;SDS011;778;50.120;8.698;2023-11-19T05:18:07;4.13;;;3.83;;
1569;SDS011;778;50.120;8.698;2023-11-19T05:20:35;5.50;;;5.10;;
1569;SDS011;778;50.120;8.698;2023-11-19T05:23:03;4.60;;;4.30;;
1569;SDS011;778;50.120;8.698;2023-11-19T05:25:31;5.03;;;4.40;;
1569;SDS011;778;50.120;8.698;2023-11-19T05:28:00;4.23;;;3.93;;
1569;SDS011;778;50.120;8.698;2023-11-19T05:30:29;3.97;;;3.67;;
1569;SDS011;778;50.120;8.698;2023-11-19T05:32:58;4.27;;;3.97;;
1569;SDS011;778;50.120;8.698;2023-11-19T05:35:27;4.80;;;4.50;;
1569;SDS011;778;50.120;8.698;2023-11-19T05:37:55;4.43;;;4.13;;
1569;SDS011;778;50.120;8.698;2023-11-19T05:40:23;3.83;;;3.63;;
1569;SDS011;778;50.120;8.698;2023-11-19T05:42:51;4.70;;;4.30;;
1569;SDS011;778;50.120;8.698;2023-11-19T05:45:20;4.80;;;4.40;;
1569;SDS011;778;50.120;8.698;2023-11-19T05:47:50;4.57;;;4.23;;
1569;SDS011;778;50.120;8.698;2023-11-19T05:50:19;5.83;;;4.57;;
1569;SDS011;778;50.120;8.698;2023-11-19T05:52:47;4.97;;;4.67;;
1569;SDS011;778;50.120;8.698;2023-11-19T05:55:15;5.50;;;5.10;;
1569;SDS011;778;50.120;8.698;2023-11-19T05:57:44;5.50;;;5.00;;
1569;SDS011;778;50.120;8.698;2023-11-19T06:00:13;6.93;;;6.23;;
1569;SDS011;778;50.120;8.698;2023-11-19T06:02:42;5.80;;;5.30;;
1569;SDS011;778;50.120;8.698;2023-11-19T06:05:12;5.70;;;5.10;;
1569;SDS011;778;50.120;8.698;2023-11-19T06:07:40;5.87;;;5.47;;
1569;SDS011;778;50.120;8.698;2023-11-19T06:10:08;6.07;;;5.60;;
1569;SDS011;778;50.120;8.698;2023-11-19T06:12:39;5.67;;;5.17;;
1569;SDS011;778;50.120;8.698;2023-11-19T06:15:08;5.40;;;5.00;;
1569;SDS011;778;50.120;8.698;2023-11-19T06:17:38;5.10;;;4.70;;
1569;SDS011;778;50.120;8.698;2023-11-19T06:20:07;4.83;;;4.53;;
1569;SDS011;778;50.120;8.698;2023-11-19T06:22:40;5.40;;;5.00;;
1569;SDS011;778;50.120;8.698;2023-11-19T06:25:09;4.80;;;4.50;;
1569;SDS011;778;50.120;8.698;2023-11-19T06:27:39;5.93;;;5.33;;
1569;SDS011;778;50.120;8.698;2023-11-19T06:30:07;4.90;;;4.50;;
1569;SDS011;778;50.120;8.698;2023-11-19T06:32:36;4.93;;;4.53;;
1569;SDS011;778;50.120;8.698;2023-11-19T06:35:04;4.63;;;4.23;;
1569;SDS011;778;50.120;8.698;2023-11-19T06:37:33;4.80;;;4.40;;
1569;SDS011;778;50.120;8.698;2023-11-19T06:40:03;6.20;;;4.40;;
1569;SDS011;778;50.120;8.698;2023-11-19T06:42:32;4.60;;;4.20;;
1569;SDS011;778;50.120;8.698;2023-11-19T06:45:00;5.00;;;4.50;;
1569;SDS011;778;50.120;8.698;2023-11-19T06:47:28;6.20;;;5.60;;
1569;SDS011;778;50.120;8.698;2023-11-19T06:49:56;5.70;;;5.30;;
1569;SDS011;778;50.120;8.698;2023-11-19T06:52:25;5.07;;;4.67;;
1569;SDS011;778;50.120;8.698;2023-11-19T06:54:53;5.97;;;5.23;;
1569;SDS011;778;50.120;8.698;2023-11-19T06:57:35;5.63;;;5.13;;
1569;SDS011;778;50.120;8.698;2023-11-19T07:00:04;5.60;;;5.10;;
1569;SDS011;778;50.120;8.698;2023-11-19T07:02:33;5.30;;;4.83;;
1569;SDS011;778;50.120;8.698;2023-11-19T07:05:02;5.27;;;4.87;;
1569;SDS011;778;50.120;8.698;2023-11-19T07:07:31;4.97;;;4.63;;
1569;SDS011;778;50.120;8.698;2023-11-19T07:10:00;5.30;;;4.80;;
1569;SDS011;778;50.120;8.698;2023-11-19T07:12:28;5.33;;;4.93;;
1569;SDS011;778;50.120;8.698;2023-11-19T07:14:58;6.20;;;4.80;;
1569;SDS011;778;50.120;8.698;2023-11-19T07:17:26;5.40;;;5.00;;
1569;SDS011;778;50.120;8.698;2023-11-19T07:19:55;4.70;;;4.40;;
1569;SDS011;778;50.120;8.698;2023-11-19T07:22:25;5.00;;;4.60;;
1569;SDS011;778;50.120;8.698;2023-11-19T07:24:56;5.10;;;4.70;;
1569;SDS011;778;50.120;8.698;2023-11-19T07:27:25;5.13;;;4.70;;
1569;SDS011;778;50.120;8.698;2023-11-19T07:29:54;4.63;;;4.33;;
1569;SDS011;778;50.120;8.698;2023-11-19T07:32:24;5.20;;;4.70;;
1569;SDS011;778;50.120;8.698;2023-11-19T07:34:52;4.60;;;4.13;;
1569;SDS011;778;50.120;8.698;2023-11-19T07:37:20;6.10;;;5.50;;
1569;SDS011;778;50.120;8.698;2023-11-19T07:39:48;5.60;;;4.40;;
1569;SDS011;778;50.120;8.698;2023-11-19T07:42:17;5.93;;;4.67;;
1569;SDS011;778;50.120;8.698;2023-11-19T07:44:45;4.87;;;4.57;;
1569;SDS011;778;50.120;8.698;2023-11-19T07:47:13;6.50;;;6.00;;
1569;SDS011;778;50.120;8.698;2023-11-19T07:49:43;5.60;;;5.20;;
1569;SDS011;778;50.120;8.698;2023-11-19T07:52:11;5.20;;;4.80;;
1569;SDS011;778;50.120;8.698;2023-11-19T07:54:42;4.93;;;4.53;;
1569;SDS011;778;50.120;8.698;2023-11-19T07:57:10;5.83;;;5.43;;
1569;SDS011;778;50.120;8.698;2023-11-19T07:59:39;5.37;;;4.97;;
1569;SDS011;778;50.120;8.698;2023-11-19T08:02:07;5.00;;;4.60;;
1569;SDS011;778;50.120;8.698;2023-11-19T08:04:36;5.30;;;4.80;;
1569;SDS011;778;50.120;8.698;2023-11-19T08:07:07;4.43;;;4.03;;
1569;SDS011;778;50.120;8.698;2023-11-19T08:09:35;4.90;;;4.53;;
1569;SDS011;778;50.120;8.698;2023-11-19T08:12:04;4.53;;;4.23;;
1569;SDS011;778;50.120;8.698;2023-11-19T08:14:33;4.53;;;4.20;;
1569;SDS011;778;50.120;8.698;2023-11-19T08:17:02;5.10;;;4.63;;
1569;SDS011;778;50.120;8.698;2023-11-19T08:19:30;5.53;;;4.80;;
1569;SDS011;778;50.120;8.698;2023-11-19T08:21:59;4.93;;;4.40;;
1569;SDS011;778;50.120;8.698;2023-11-19T08:24:28;5.90;;;5.50;;
1569;SDS011;778;50.120;8.698;2023-11-19T08:26:56;5.07;;;4.57;;
1569;SDS011;778;50.120;8.698;2023-11-19T08:29:27;5.87;;;5.47;;
1569;SDS011;778;50.120;8.698;2023-11-19T08:31:56;6.60;;;5.97;;
1569;SDS011;778;50.120;8.698;2023-11-19T08:34:25;6.40;;;5.90;;
1569;SDS011;778;50.120;8.698;2023-11-19T08:36:53;6.30;;;5.80;;
1569;SDS011;778;50.120;8.698;2023-11-19T08:39:22;6.37;;;5.90;;
1569;SDS011;778;50.120;8.698;2023-11-19T08:41:51;5.83;;;5.43;;
1569;SDS011;778;50.120;8.698;2023-11-19T08:44:22;6.50;;;6.00;;
1569;SDS011;778;50.120;8.698;2023-11-19T08:46:50;8.43;;;5.83;;
1569;SDS011;778;50.120;8.698;2023-11-19T08:49:18;7.33;;;6.73;;
1569;SDS011;778;50.120;8.698;2023-11-19T08:51:47;6.10;;;5.60;;
1569;SDS011;778;50.120;8.698;2023-11-19T08:54:15;6.67;;;5.93;;
1569;SDS011;778;50.120;8.698;2023-11-19T08:56:43;7.60;;;6.70;;
1569;SDS011;778;50.120;8.698;2023-11-19T08:59:13;6.63;;;6.10;;
1569;SDS011;778;50.120;8.698;2023-11-19T09:01:43;6.63;;;6.13;;
1569;SDS011;778;50.120;8.698;2023-11-19T09:04:12;6.57;;;6.07;;
1569;SDS011;778;50.120;8.698;2023-11-19T09:06:40;10.33;;;7.40;;
1569;SDS011;778;50.120;8.698;2023-11-19T09:09:09;7.50;;;6.93;;
1569;SDS011;778;50.120;8.698;2023-11-19T09:11:37;7.70;;;7.10;;
1569;SDS011;778;50.120;8.698;2023-11-19T09:14:05;8.40;;;7.57;;
1569;SDS011;778;50.120;8.698;2023-11-19T09:16:35;6.93;;;6.43;;
1569;SDS011;778;50.120;8.698;2023-11-19T09:19:03;10.03;;;6.73;;
1569;SDS011;778;50.120;8.698;2023-11-19T09:21:32;7.73;;;7.13;;
1569;SDS011;778;50.120;8.698;2023-11-19T09:24:04;8.27;;;7.57;;
1569;SDS011;778;50.120;8.698;2023-11-19T09:26:34;7.07;;;6.57;;
1569;SDS011;778;50.120;8.698;2023-11-19T09:29:06;8.80;;;7.97;;
1569;SDS011;778;50.120;8.698;2023-11-19T09:31:37;6.70;;;6.10;;
1569;SDS011;778;50.120;8.698;2023-11-19T09:34:05;8.10;;;7.30;;
1569;SDS011;778;50.120;8.698;2023-11-19T09:36:34;7.83;;;7.23;;
1569;SDS011;778;50.120;8.698;2023-11-19T09:39:02;9.43;;;8.40;;
1569;SDS011;778;50.120;8.698;2023-11-19T09:41:31;8.10;;;7.40;;
1569;SDS011;778;50.120;8.698;2023-11-19T09:44:01;8.50;;;7.90;;
1569;SDS011;778;50.120;8.698;2023-11-19T09:46:29;7.37;;;6.40;;
1569;SDS011;778;50.120;8.698;2023-11-19T09:48:59;10.50;;;6.77;;
1569;SDS011;778;50.120;8.698;2023-11-19T09:51:28;9.30;;;7.77;;
1569;SDS011;778;50.120;8.698;2023-11-19T09:53:57;6.63;;;6.03;;
1569;SDS011;778;50.120;8.698;2023-11-19T09:56:25;5.83;;;5.33;;
1569;SDS011;778;50.120;8.698;2023-11-19T09:58:56;5.85;;;5.35;;
1569;SDS011;778;50.120;8.698;2023-11-19T10:01:24;6.37;;;5.87;;
1569;SDS011;778;50.120;8.698;2023-11-19T10:03:55;4.80;;;3.93;;
1569;SDS011;778;50.120;8.698;2023-11-19T10:06:25;4.57;;;3.50;;
1569;SDS011;778;50.120;8.698;2023-11-19T10:08:54;5.60;;;3.60;;
1569;SDS011;778;50.120;8.698;2023-11-19T10:11:23;3.67;;;1.90;;
1569;SDS011;778;50.120;8.698;2023-11-19T10:13:51;4.83;;;2.20;;
1569;SDS011;778;50.120;8.698;2023-11-19T10:16:22;4.83;;;2.00;;
1569;SDS011;778;50.120;8.698;2023-11-19T10:18:56;4.13;;;2.33;;
1569;SDS011;778;50.120;8.698;2023-11-19T10:21:26;3.13;;;2.00;;
1569;SDS011;778;50.120;8.698;2023-11-19T10:23:55;4.57;;;2.10;;
1569;SDS011;778;50.120;8.698;2023-11-19T10:26:26;4.00;;;2.10;;
1569;SDS011;778;50.120;8.698;2023-11-19T10:28:55;7.80;;;2.17;;
1569;SDS011;778;50.120;8.698;2023-11-19T10:31:23;4.53;;;2.27;;
1569;SDS011;778;50.120;8.698;2023-11-19T10:33:53;3.20;;;2.00;;
1569;SDS011;778;50.120;8.698;2023-11-19T10:36:21;4.30;;;2.00;;
1569;SDS011;778;50.120;8.698;2023-11-19T10:38:55;4.90;;;1.93;;
1569;SDS011;778;50.120;8.698;2023-11-19T10:41:28;4.23;;;1.90;;
1569;SDS011;778;50.120;8.698;2023-11-19T10:43:57;5.40;;;2.40;;
1569;SDS011;778;50.120;8.698;2023-11-19T10:46:35;6.97;;;4.40;;
1569;SDS011;778;50.120;8.698;2023-11-19T10:49:06;8.00;;;1.90;;
1569;SDS011;778;50.120;8.698;2023-11-19T10:51:34;5.60;;;2.37;;
1569;SDS011;778;50.120;8.698;2023-11-19T10:54:05;8.40;;;2.73;;
1569;SDS011;778;50.120;8.698;2023-11-19T10:56:34;4.83;;;1.93;;
1569;SDS011;778;50.120;8.698;2023-11-19T10:59:02;7.97;;;2.07;;
1569;SDS011;778;50.120;8.698;2023-11-19T11:01:49;8.90;;;2.33;;
1569;SDS011;778;50.120;8.698;2023-11-19T11:04:22;6.60;;;2.10;;
1569;SDS011;778;50.120;8.698;2023-11-19T11:06:53;7.30;;;2.03;;
1569;SDS011;778;50.120;8.698;2023-11-19T11:09:23;5.00;;;2.37;;
1569;SDS011;778;50.120;8.698;2023-11-19T11:11:54;5.93;;;2.03;;
1569;SDS011;778;50.120;8.698;2023-11-19T11:14:24;8.67;;;2.40;;
1569;SDS011;778;50.120;8.698;2023-11-19T11:16:54;8.27;;;3.43;;
1569;SDS011;778;50.120;8.698;2023-11-19T11:19:24;7.00;;;2.70;;
1569;SDS011;778;50.120;8.698;2023-11-19T11:21:53;9.33;;;2.50;;
1569;SDS011;778;50.120;8.698;2023-11-19T11:24:37;6.57;;;2.40;;
1569;SDS011;778;50.120;8.698;2023-11-19T11:27:32;7.53;;;2.40;;
1569;SDS011;778;50.120;8.698;2023-11-19T11:30:19;8.67;;;2.40;;
1569;SDS011;778;50.120;8.698;2023-11-19T11:33:11;4.03;;;2.07;;
1569;SDS011;778;50.120;8.698;2023-11-19T11:35:53;7.73;;;2.70;;
1569;SDS011;778;50.120;8.698;2023-11-19T11:38:28;6.93;;;2.60;;
1569;SDS011;778;50.120;8.698;2023-11-19T11:41:16;10.50;;;2.87;;
1569;SDS011;778;50.120;8.698;2023-11-19T11:43:47;8.10;;;2.40;;
1569;SDS011;778;50.120;8.698;2023-11-19T11:49:27;10.00;;;3.10;;
1569;SDS011;778;50.120;8.698;2023-11-19T11:51:59;6.60;;;2.50;;
1569;SDS011;778;50.120;8.698;2023-11-19T11:54:32;8.60;;;2.20;;
1569;SDS011;778;50.120;8.698;2023-11-19T11:57:03;8.27;;;2.70;;
1569;SDS011;778;50.120;8.698;2023-11-19T11:59:46;9.30;;;2.90;;
1569;SDS011;778;50.120;8.698;2023-11-19T12:02:16;7.57;;;2.70;;
1569;SDS011;778;50.120;8.698;2023-11-19T12:04:48;9.33;;;2.60;;
1569;SDS011;778;50.120;8.698;2023-11-19T12:07:18;11.30;;;2.80;;
1569;SDS011;778;50.120;8.698;2023-11-19T12:09:48;12.70;;;2.63;;
1569;SDS011;778;50.120;8.698;2023-11-19T12:12:26;7.37;;;2.80;;
1569;SDS011;778;50.120;8.698;2023-11-19T12:15:02;12.67;;;3.33;;
1569;SDS011;778;50.120;8.698;2023-11-19T12:17:43;8.80;;;2.83;;
1569;SDS011;778;50.120;8.698;2023-11-19T12:20:18;10.57;;;2.70;;
1569;SDS011;778;50.120;8.698;2023-11-19T12:22:50;8.80;;;3.30;;
1569;SDS011;778;50.120;8.698;2023-11-19T12:25:19;11.07;;;2.50;;
1569;SDS011;778;50.120;8.698;2023-11-19T12:27:50;14.70;;;3.07;;
1569;SDS011;778;50.120;8.698;2023-11-19T12:30:21;5.27;;;2.43;;
1569;SDS011;778;50.120;8.698;2023-11-19T12:32:50;8.80;;;2.53;;
1569;SDS011;778;50.120;8.698;2023-11-19T12:35:20;8.67;;;2.57;;
1569;SDS011;778;50.120;8.698;2023-11-19T12:37:49;4.93;;;2.27;;
1569;SDS011;778;50.120;8.698;2023-11-19T12:40:18;7.80;;;2.67;;
1569;SDS011;778;50.120;8.698;2023-11-19T12:42:48;9.30;;;2.83;;
1569;SDS011;778;50.120;8.698;2023-11-19T12:45:18;6.83;;;2.33;;
1569;SDS011;778;50.120;8.698;2023-11-19T12:47:48;7.10;;;2.40;;
1569;SDS011;778;50.120;8.698;2023-11-19T12:50:19;5.57;;;2.20;;
1569;SDS011;778;50.120;8.698;2023-11-19T12:52:54;4.17;;;1.97;;
1569;SDS011;778;50.120;8.698;2023-11-19T12:55:24;5.10;;;2.57;;
1569;SDS011;778;50.120;8.698;2023-11-19T12:57:55;11.10;;;2.80;;
1569;SDS011;778;50.120;8.698;2023-11-19T13:00:26;7.90;;;2.70;;
1569;SDS011;778;50.120;8.698;2023-11-19T13:02:56;4.70;;;2.27;;
1569;SDS011;778;50.120;8.698;2023-11-19T13:05:26;4.23;;;2.20;;
1569;SDS011;778;50.120;8.698;2023-11-19T13:07:58;10.93;;;2.93;;
1569;SDS011;778;50.120;8.698;2023-11-19T13:10:27;9.30;;;1.67;;
1569;SDS011;778;50.120;8.698;2023-11-19T13:13:02;8.93;;;2.87;;
1569;SDS011;778;50.120;8.698;2023-11-19T13:15:34;7.17;;;2.23;;
1569;SDS011;778;50.120;8.698;2023-11-19T13:18:03;8.47;;;2.40;;
1569;SDS011;778;50.120;8.698;2023-11-19T13:20:31;5.87;;;3.00;;
1569;SDS011;778;50.120;8.698;2023-11-19T13:23:00;8.70;;;3.10;;
1569;SDS011;778;50.120;8.698;2023-11-19T13:25:31;8.23;;;2.30;;
1569;SDS011;778;50.120;8.698;2023-11-19T13:28:00;9.60;;;2.50;;
1569;SDS011;778;50.120;8.698;2023-11-19T13:30:28;5.60;;;2.23;;
1569;SDS011;778;50.120;8.698;2023-11-19T13:32:58;10.20;;;2.67;;
1569;SDS011;778;50.120;8.698;2023-11-19T13:35:27;15.33;;;3.13;;
1569;SDS011;778;50.120;8.698;2023-11-19T13:37:56;8.00;;;2.67;;
1569;SDS011;778;50.120;8.698;2023-11-19T13:40:24;8.30;;;3.63;;
1569;SDS011;778;50.120;8.698;2023-11-19T13:42:53;9.20;;;2.97;;
1569;SDS011;778;50.120;8.698;2023-11-19T13:45:21;7.40;;;2.47;;
1569;SDS011;778;50.120;8.698;2023-11-19T13:47:49;6.23;;;2.17;;
1569;SDS011;778;50.120;8.698;2023-11-19T13:50:19;6.43;;;2.60;;
1569;SDS011;778;50.120;8.698;2023-11-19T13:52:49;8.27;;;3.17;;
1569;SDS011;778;50.120;8.698;2023-11-19T13:55:17;8.77;;;2.90;;
1569;SDS011;778;50.120;8.698;2023-11-19T13:57:45;6.37;;;2.80;;
1569;SDS011;778;50.120;8.698;2023-11-19T14:00:15;7.60;;;3.00;;
1569;SDS011;778;50.120;8.698;2023-11-19T14:02:45;8.43;;;2.47;;
1569;SDS011;778;50.120;8.698;2023-11-19T14:05:15;5.53;;;2.33;;
1569;SDS011;778;50.120;8.698;2023-11-19T14:08:05;7.70;;;3.20;;
1569;SDS011;778;50.120;8.698;2023-11-19T14:10:50;8.23;;;2.77;;
1569;SDS011;778;50.120;8.698;2023-11-19T14:13:22;8.17;;;3.43;;
1569;SDS011;778;50.120;8.698;2023-11-19T14:15:50;9.93;;;2.27;;
1569;SDS011;778;50.120;8.698;2023-11-19T14:18:19;8.87;;;2.33;;
1569;SDS011;778;50.120;8.698;2023-11-19T14:20:47;5.20;;;2.57;;
1569;SDS011;778;50.120;8.698;2023-11-19T14:23:17;6.50;;;3.13;;
1569;SDS011;778;50.120;8.698;2023-11-19T14:25:45;8.80;;;2.50;;
1569;SDS011;778;50.120;8.698;2023-11-19T14:28:13;8.80;;;3.17;;
1569;SDS011;778;50.120;8.698;2023-11-19T14:30:42;9.97;;;2.53;;
1569;SDS011;778;50.120;8.698;2023-11-19T14:33:12;8.87;;;2.77;;
1569;SDS011;778;50.120;8.698;2023-11-19T14:35:40;12.90;;;4.97;;
1569;SDS011;778;50.120;8.698;2023-11-19T14:38:08;8.90;;;3.20;;
1569;SDS011;778;50.120;8.698;2023-11-19T14:40:37;7.67;;;2.97;;
1569;SDS011;778;50.120;8.698;2023-11-19T14:43:08;8.80;;;2.83;;
1569;SDS011;778;50.120;8.698;2023-11-19T14:45:37;5.70;;;2.23;;
1569;SDS011;778;50.120;8.698;2023-11-19T14:48:15;7.70;;;3.03;;
1569;SDS011;778;50.120;8.698;2023-11-19T14:50:44;7.00;;;2.63;;
1569;SDS011;778;50.120;8.698;2023-11-19T14:53:12;9.00;;;3.10;;
1569;SDS011;778;50.120;8.698;2023-11-19T14:55:42;8.77;;;2.73;;
1569;SDS011;778;50.120;8.698;2023-11-19T14:58:10;7.27;;;2.40;;
1569;SDS011;778;50.120;8.698;2023-11-19T15:00:42;8.60;;;2.70;;
1569;SDS011;778;50.120;8.698;2023-11-19T15:03:12;7.83;;;2.63;;
1569;SDS011;778;50.120;8.698;2023-11-19T15:05:43;9.20;;;2.20;;
1569;SDS011;778;50.120;8.698;2023-11-19T15:08:12;7.80;;;2.90;;
1569;SDS011;778;50.120;8.698;2023-11-19T15:10:43;7.63;;;2.33;;
1569;SDS011;778;50.120;8.698;2023-11-19T15:13:13;11.90;;;2.73;;
1569;SDS011;778;50.120;8.698;2023-11-19T15:15:41;5.70;;;2.30;;
1569;SDS011;778;50.120;8.698;2023-11-19T15:18:10;9.77;;;3.13;;
1569;SDS011;778;50.120;8.698;2023-11-19T15:20:38;9.00;;;2.57;;
1569;SDS011;778;50.120;8.698;2023-11-19T15:23:06;8.97;;;3.10;;
1569;SDS011;778;50.120;8.698;2023-11-19T15:25:36;6.87;;;2.20;;
1569;SDS011;778;50.120;8.698;2023-11-19T15:28:05;5.83;;;2.53;;
1569;SDS011;778;50.120;8.698;2023-11-19T15:30:34;6.30;;;2.50;;
1569;SDS011;778;50.120;8.698;2023-11-19T15:33:02;6.60;;;2.87;;
1569;SDS011;778;50.120;8.698;2023-11-19T15:35:30;7.83;;;2.83;;
1569;SDS011;778;50.120;8.698;2023-11-19T15:37:58;8.67;;;2.87;;
1569;SDS011;778;50.120;8.698;2023-11-19T15:40:27;9.50;;;3.47;;
1569;SDS011;778;50.120;8.698;2023-11-19T15:42:55;9.63;;;3.57;;
1569;SDS011;778;50.120;8.698;2023-11-19T15:45:25;13.00;;;4.20;;
1569;SDS011;778;50.120;8.698;2023-11-19T15:47:53;30.80;;;21.50;;
1569;SDS011;778;50.120;8.698;2023-11-19T15:50:22;10.23;;;4.80;;